createdAt,value
2018-12-19T00:00:13.774Z,5.60
2018-12-19T00:02:42.010Z,5.60
2018-12-19T00:05:10.238Z,5.60
2018-12-19T00:07:38.435Z,5.70
2018-12-19T00:10:06.843Z,5.60
2018-12-19T00:12:35.135Z,5.70
2018-12-19T00:15:03.428Z,5.70
2018-12-19T00:17:31.721Z,5.60
2018-12-19T00:20:01.033Z,5.60
2018-12-19T00:22:29.624Z,5.60
2018-12-19T00:24:57.775Z,5.60
2018-12-19T00:27:26.011Z,5.60
2018-12-19T00:29:54.169Z,5.60
2018-12-19T00:32:22.304Z,5.60
2018-12-19T00:34:51.382Z,5.60
2018-12-19T00:37:19.677Z,5.60
2018-12-19T00:39:48.043Z,5.60
2018-12-19T00:42:16.203Z,5.60
2018-12-19T00:44:44.520Z,5.70
2018-12-19T00:47:12.681Z,5.70
2018-12-19T00:49:41.083Z,5.70
2018-12-19T00:52:09.283Z,5.70
2018-12-19T00:54:37.482Z,5.70
2018-12-19T00:57:05.759Z,5.70
2018-12-19T00:59:33.910Z,5.70
2018-12-19T01:02:02.196Z,5.70
2018-12-19T01:04:30.414Z,5.70
2018-12-19T01:06:58.589Z,5.70
2018-12-19T01:09:26.825Z,5.70
2018-12-19T01:11:55.186Z,5.70
2018-12-19T01:14:23.440Z,5.70
2018-12-19T01:16:51.598Z,5.80
2018-12-19T01:19:19.757Z,5.80
2018-12-19T01:21:47.996Z,5.80
2018-12-19T01:24:16.184Z,5.80
2018-12-19T01:26:44.459Z,5.80
2018-12-19T01:29:12.669Z,5.80
2018-12-19T01:31:40.854Z,5.90
2018-12-19T01:34:09.064Z,5.90
2018-12-19T01:36:37.281Z,5.90
2018-12-19T01:39:07.511Z,5.90
2018-12-19T01:41:35.798Z,5.90
2018-12-19T01:44:04.131Z,5.90
2018-12-19T01:46:32.369Z,5.90
2018-12-19T01:49:00.570Z,6.00
2018-12-19T01:51:28.807Z,5.90
2018-12-19T01:53:56.976Z,6.00
2018-12-19T01:56:25.174Z,6.00
2018-12-19T01:58:53.343Z,6.00
2018-12-19T02:01:21.561Z,6.00
2018-12-19T02:03:49.734Z,6.10
2018-12-19T02:06:17.945Z,6.00
2018-12-19T02:08:46.169Z,6.00
2018-12-19T02:11:14.330Z,6.00
2018-12-19T02:13:42.482Z,6.00
2018-12-19T02:16:10.706Z,5.90
2018-12-19T02:18:39.092Z,5.90
2018-12-19T02:21:07.481Z,6.00
2018-12-19T02:23:35.674Z,6.00
2018-12-19T02:26:03.927Z,5.90
2018-12-19T02:28:32.078Z,6.00
2018-12-19T02:31:00.286Z,6.00
2018-12-19T02:33:28.495Z,6.00
2018-12-19T02:35:56.682Z,6.00
2018-12-19T02:38:24.843Z,6.00
2018-12-19T02:40:53.166Z,6.00
2018-12-19T02:43:21.352Z,6.00
2018-12-19T02:45:49.514Z,6.10
2018-12-19T02:48:17.711Z,6.00
2018-12-19T02:50:45.895Z,6.00
2018-12-19T02:53:14.067Z,6.00
2018-12-19T02:55:42.274Z,6.00
2018-12-19T02:58:10.443Z,6.00
2018-12-19T03:00:38.613Z,6.00
2018-12-19T03:03:06.882Z,6.00
2018-12-19T03:05:35.124Z,6.10
2018-12-19T03:08:03.509Z,6.00
2018-12-19T03:10:31.764Z,6.00
2018-12-19T03:12:59.999Z,6.00
2018-12-19T03:15:28.211Z,6.00
2018-12-19T03:17:56.491Z,6.00
2018-12-19T03:20:24.644Z,6.00
2018-12-19T03:22:52.831Z,6.10
2018-12-19T03:25:21.019Z,6.10
2018-12-19T03:27:49.185Z,6.10
2018-12-19T03:30:17.470Z,6.10
2018-12-19T03:32:45.759Z,6.20
2018-12-19T03:35:14.078Z,6.20
2018-12-19T03:37:42.248Z,6.30
2018-12-19T03:40:10.466Z,6.30
2018-12-19T03:42:38.710Z,6.30
2018-12-19T03:45:07.312Z,6.30
2018-12-19T03:47:35.495Z,6.30
2018-12-19T03:50:04.130Z,6.30
2018-12-19T03:52:32.368Z,6.30
2018-12-19T03:55:00.797Z,6.40
2018-12-19T03:57:29.411Z,6.40
2018-12-19T03:59:57.634Z,6.40
2018-12-19T04:02:25.838Z,6.40
2018-12-19T04:04:53.984Z,6.50
2018-12-19T04:07:22.252Z,6.50
2018-12-19T04:09:57.464Z,6.40
2018-12-19T04:12:20.635Z,6.40
2018-12-19T04:14:48.771Z,6.30
2018-12-19T04:17:17.041Z,6.20
2018-12-19T04:19:45.266Z,6.20
2018-12-19T04:22:13.459Z,6.20
2018-12-19T04:24:41.776Z,6.20
2018-12-19T04:27:09.986Z,6.20
2018-12-19T04:29:38.556Z,6.30
2018-12-19T04:32:06.873Z,6.30
2018-12-19T04:34:35.035Z,6.30
2018-12-19T04:37:03.234Z,6.40
2018-12-19T04:39:31.862Z,6.40
2018-12-19T04:42:00.026Z,6.40
2018-12-19T04:44:28.201Z,6.40
2018-12-19T04:46:56.566Z,6.40
2018-12-19T04:49:24.821Z,6.40
2018-12-19T04:51:53.198Z,6.50
2018-12-19T04:54:21.373Z,6.50
2018-12-19T04:56:49.648Z,6.50
2018-12-19T04:59:18.053Z,6.50
2018-12-19T05:01:46.222Z,6.50
2018-12-19T05:04:14.382Z,6.50
2018-12-19T05:06:42.608Z,6.60
2018-12-19T05:09:11.153Z,6.60
2018-12-19T05:11:39.513Z,6.60
2018-12-19T05:14:07.770Z,6.70
2018-12-19T05:16:35.935Z,6.70
2018-12-19T05:19:04.646Z,6.70
2018-12-19T05:21:32.812Z,6.80
2018-12-19T05:24:00.977Z,6.90
2018-12-19T05:26:29.403Z,6.90
2018-12-19T05:28:57.562Z,6.90
2018-12-19T05:31:25.907Z,6.90
2018-12-19T05:33:54.080Z,7.00
2018-12-19T05:36:22.277Z,7.00
2018-12-19T05:38:51.054Z,7.00
2018-12-19T05:41:19.255Z,7.00
2018-12-19T05:43:47.528Z,7.00
2018-12-19T05:46:15.772Z,7.10
2018-12-19T05:48:43.973Z,7.10
2018-12-19T05:51:12.149Z,7.20
2018-12-19T05:53:42.586Z,7.20
2018-12-19T05:56:10.804Z,7.20
2018-12-19T05:58:39.028Z,7.30
2018-12-19T06:01:07.320Z,7.30
2018-12-19T06:03:35.695Z,7.40
2018-12-19T06:06:04.147Z,7.40
2018-12-19T06:08:32.322Z,7.40
2018-12-19T06:11:00.601Z,7.40
2018-12-19T06:13:28.857Z,7.40
2018-12-19T06:15:57.178Z,7.50
2018-12-19T06:18:25.424Z,7.40
2018-12-19T06:20:53.937Z,7.50
2018-12-19T06:23:22.211Z,7.50
2018-12-19T06:25:50.688Z,7.50
2018-12-19T06:28:19.765Z,7.50
2018-12-19T06:30:48.174Z,7.50
2018-12-19T06:33:16.432Z,7.60
2018-12-19T06:35:44.616Z,7.60
2018-12-19T06:38:12.907Z,7.70
2018-12-19T06:40:41.160Z,7.70
2018-12-19T06:43:09.350Z,7.80
2018-12-19T06:45:37.650Z,7.80
2018-12-19T06:48:05.965Z,7.80
2018-12-19T06:50:34.191Z,7.80
2018-12-19T06:53:02.542Z,7.80
2018-12-19T06:55:31.299Z,7.80
2018-12-19T06:57:59.582Z,7.80
2018-12-19T07:00:28.084Z,7.70
2018-12-19T07:02:57.359Z,7.70
2018-12-19T07:05:25.511Z,7.70
2018-12-19T07:07:53.689Z,7.70
2018-12-19T07:10:21.984Z,7.70
2018-12-19T07:12:50.372Z,7.70
2018-12-19T07:15:18.672Z,7.70
2018-12-19T07:17:47.139Z,7.80
2018-12-19T07:20:15.390Z,7.80
2018-12-19T07:22:43.683Z,7.80
2018-12-19T07:25:11.875Z,7.90
2018-12-19T07:27:40.133Z,7.90
2018-12-19T07:30:09.668Z,8.00
2018-12-19T07:32:37.899Z,8.00
2018-12-19T07:35:06.163Z,8.00
2018-12-19T07:37:36.236Z,8.00
2018-12-19T07:40:04.944Z,7.90
2018-12-19T07:42:33.139Z,7.90
2018-12-19T07:45:01.409Z,7.90
2018-12-19T07:47:29.819Z,7.80
2018-12-19T07:49:58.095Z,7.80
2018-12-19T07:52:27.322Z,7.80
2018-12-19T07:54:55.784Z,7.80
2018-12-19T07:57:25.007Z,7.80
2018-12-19T07:59:53.287Z,7.80
2018-12-19T08:02:23.010Z,7.80
2018-12-19T08:04:52.440Z,7.80
2018-12-19T08:07:23.663Z,7.80
2018-12-19T08:09:51.894Z,7.80
2018-12-19T08:12:20.811Z,7.80
2018-12-19T08:14:52.027Z,7.80
2018-12-19T08:17:20.224Z,7.70
2018-12-19T08:19:48.457Z,7.70
2018-12-19T08:22:16.913Z,7.70
2018-12-19T08:24:45.133Z,7.90
2018-12-19T08:27:13.504Z,7.90
2018-12-19T08:29:43.480Z,7.80
2018-12-19T08:32:11.650Z,7.80
2018-12-19T08:34:39.919Z,7.80
2018-12-19T08:37:08.329Z,7.80
2018-12-19T08:39:36.690Z,7.90
2018-12-19T08:42:05.011Z,8.00
2018-12-19T08:44:33.260Z,8.00
2018-12-19T08:47:01.562Z,8.00
2018-12-19T08:49:29.826Z,8.00
2018-12-19T08:51:58.757Z,8.10
2018-12-19T08:54:27.019Z,8.10
2018-12-19T08:56:55.566Z,8.40
2018-12-19T08:59:24.223Z,8.40
2018-12-19T09:01:52.383Z,8.50
2018-12-19T09:04:25.801Z,8.60
2018-12-19T09:06:51.493Z,8.70
2018-12-19T09:09:19.715Z,8.70
2018-12-19T09:11:47.968Z,8.80
2018-12-19T09:14:17.106Z,9.00
2018-12-19T09:16:45.322Z,9.00
2018-12-19T09:19:14.280Z,9.10
2018-12-19T09:21:42.462Z,9.10
2018-12-19T09:24:10.712Z,9.10
2018-12-19T09:26:39.974Z,9.10
2018-12-19T09:29:08.277Z,9.30
2018-12-19T09:31:36.681Z,9.30
2018-12-19T09:34:05.382Z,9.30
2018-12-19T09:36:33.574Z,9.50
2018-12-19T09:39:01.731Z,9.40
2018-12-19T09:41:31.879Z,9.50
2018-12-19T09:44:00.171Z,9.50
2018-12-19T09:46:28.348Z,9.50
2018-12-19T09:48:56.586Z,9.60
2018-12-19T09:51:24.842Z,9.70
2018-12-19T09:53:53.074Z,9.70
2018-12-19T09:56:21.460Z,9.60
2018-12-19T09:58:49.720Z,9.60
2018-12-19T10:01:20.207Z,9.70
2018-12-19T10:03:48.806Z,9.80
2018-12-19T10:06:17.287Z,9.70
2018-12-19T10:08:45.487Z,9.60
2018-12-19T10:11:18.715Z,9.60
2018-12-19T10:13:45.094Z,9.60
2018-12-19T10:16:14.723Z,9.60
2018-12-19T10:18:42.886Z,9.70
2018-12-19T10:21:11.373Z,9.70
2018-12-19T10:23:40.328Z,9.60
2018-12-19T10:26:12.674Z,9.70
2018-12-19T10:28:41.292Z,9.70
2018-12-19T10:31:09.677Z,9.80
2018-12-19T10:33:37.978Z,9.80
2018-12-19T10:36:07.439Z,9.80
2018-12-19T10:38:35.728Z,9.90
2018-12-19T10:41:03.960Z,9.90
2018-12-19T10:43:32.165Z,10.00
2018-12-19T10:46:00.424Z,10.00
2018-12-19T10:48:28.588Z,10.10
2018-12-19T10:50:56.950Z,10.20
2018-12-19T10:53:25.197Z,10.20
2018-12-19T10:55:54.705Z,10.30
2018-12-19T10:58:22.868Z,10.30
2018-12-19T11:00:56.660Z,10.50
2018-12-19T11:03:26.057Z,10.40
2018-12-19T11:05:54.575Z,10.50
2018-12-19T11:08:24.008Z,10.60
2018-12-19T11:10:52.286Z,10.60
2018-12-19T11:13:20.721Z,10.60
2018-12-19T11:15:49.051Z,10.60
2018-12-19T11:18:17.226Z,10.60
2018-12-19T11:20:45.554Z,10.70
2018-12-19T11:23:13.779Z,10.70
2018-12-19T11:25:41.976Z,10.80
2018-12-19T11:28:10.243Z,10.80
2018-12-19T11:30:38.504Z,10.90
2018-12-19T11:33:06.644Z,10.90
2018-12-19T11:35:36.344Z,10.90
2018-12-19T11:38:04.519Z,11.00
2018-12-19T11:40:32.704Z,11.10
2018-12-19T11:43:02.622Z,11.10
2018-12-19T11:45:30.925Z,11.20
2018-12-19T11:47:59.216Z,11.30
2018-12-19T11:50:27.481Z,11.20
2018-12-19T11:52:55.721Z,11.10
2018-12-19T11:55:23.958Z,11.10
2018-12-19T11:57:52.312Z,11.10
2018-12-19T12:00:20.469Z,11.00
2018-12-19T12:02:48.765Z,10.90
2018-12-19T12:05:19.053Z,10.90
2018-12-19T12:07:47.317Z,10.90
2018-12-19T12:10:15.548Z,10.90
2018-12-19T12:12:45.091Z,11.00
2018-12-19T12:15:13.403Z,11.00
2018-12-19T12:17:41.651Z,11.00
2018-12-19T12:20:12.365Z,11.10
2018-12-19T12:22:41.865Z,11.10
2018-12-19T12:25:10.140Z,11.10
2018-12-19T12:27:38.438Z,11.00
2018-12-19T12:30:06.960Z,11.20
2018-12-19T12:32:35.451Z,11.10
2018-12-19T12:35:04.057Z,11.20
2018-12-19T12:37:32.312Z,11.30
2018-12-19T12:40:00.563Z,11.20
2018-12-19T12:42:28.779Z,11.30
2018-12-19T12:44:57.662Z,11.60
2018-12-19T12:47:26.029Z,11.60
2018-12-19T12:49:54.288Z,11.60
2018-12-19T12:52:23.040Z,11.50
2018-12-19T12:54:51.337Z,11.40
2018-12-19T12:57:21.075Z,11.30
2018-12-19T12:59:52.217Z,11.30
2018-12-19T13:02:20.418Z,11.30
2018-12-19T13:04:48.650Z,11.30
2018-12-19T13:07:16.887Z,11.30
2018-12-19T13:09:45.085Z,11.40
2018-12-19T13:12:13.438Z,11.30
2018-12-19T13:14:41.764Z,11.20
2018-12-19T13:17:10.118Z,11.20
2018-12-19T13:19:39.066Z,11.30
2018-12-19T13:22:07.357Z,11.40
2018-12-19T13:24:43.226Z,11.40
2018-12-19T13:27:11.460Z,11.50
2018-12-19T13:29:39.643Z,11.50
2018-12-19T13:32:08.723Z,11.40
2018-12-19T13:34:36.964Z,11.40
2018-12-19T13:37:05.278Z,11.50
2018-12-19T13:39:34.394Z,11.60
2018-12-19T13:42:05.788Z,11.50
2018-12-19T13:44:33.118Z,11.40
2018-12-19T13:47:01.425Z,11.30
2018-12-19T13:49:29.626Z,11.20
2018-12-19T13:51:57.813Z,11.30
2018-12-19T13:54:26.391Z,11.30
2018-12-19T13:56:54.666Z,11.20
2018-12-19T13:59:22.846Z,11.10
2018-12-19T14:01:51.144Z,11.10
2018-12-19T14:04:19.482Z,11.10
2018-12-19T14:06:47.791Z,11.00
2018-12-19T14:09:16.025Z,10.90
2018-12-19T14:11:50.931Z,11.00
2018-12-19T14:14:19.144Z,11.00
2018-12-19T14:16:47.448Z,10.90
2018-12-19T14:19:15.822Z,10.80
2018-12-19T14:21:44.102Z,10.90
2018-12-19T14:24:12.300Z,10.80
2018-12-19T14:26:40.516Z,10.80
2018-12-19T14:29:09.246Z,10.80
2018-12-19T14:31:37.474Z,10.90
2018-12-19T14:34:05.675Z,10.80
2018-12-19T14:36:34.287Z,10.80
2018-12-19T14:39:03.674Z,10.60
2018-12-19T14:41:31.855Z,10.70
2018-12-19T14:44:00.189Z,10.70
2018-12-19T14:46:28.463Z,10.70
2018-12-19T14:48:56.866Z,10.70
2018-12-19T14:51:25.255Z,10.60
2018-12-19T14:53:53.488Z,10.60
2018-12-19T14:56:21.681Z,10.70
2018-12-19T14:58:50.102Z,10.70
2018-12-19T15:01:18.430Z,10.70
2018-12-19T15:03:46.724Z,10.70
2018-12-19T15:06:15.036Z,10.70
2018-12-19T15:08:43.606Z,10.70
2018-12-19T15:11:11.907Z,10.60
2018-12-19T15:13:40.227Z,10.60
2018-12-19T15:16:08.638Z,10.50
2018-12-19T15:18:37.385Z,10.50
2018-12-19T15:21:06.726Z,10.60
2018-12-19T15:23:34.946Z,10.60
2018-12-19T15:26:03.246Z,10.60
2018-12-19T15:28:31.677Z,10.50
2018-12-19T15:31:00.239Z,10.50
2018-12-19T15:33:28.504Z,10.60
2018-12-19T15:35:56.968Z,10.60
2018-12-19T15:38:25.702Z,10.60
2018-12-19T15:40:55.295Z,10.60
2018-12-19T15:43:23.694Z,10.50
2018-12-19T15:45:52.006Z,10.50
2018-12-19T15:48:20.556Z,10.60
2018-12-19T15:50:48.909Z,10.50
2018-12-19T15:53:17.191Z,10.50
2018-12-19T15:55:47.000Z,10.50
2018-12-19T15:58:15.576Z,10.50
2018-12-19T16:00:44.071Z,10.50
2018-12-19T16:03:12.851Z,10.40
2018-12-19T16:05:41.314Z,10.40
2018-12-19T16:08:09.784Z,10.40
2018-12-19T16:10:38.030Z,10.40
2018-12-19T16:13:06.658Z,10.40
2018-12-19T16:15:34.834Z,10.30
2018-12-19T16:18:03.110Z,10.30
2018-12-19T16:20:31.575Z,10.30
2018-12-19T16:22:59.774Z,10.20
2018-12-19T16:25:28.217Z,10.30
2018-12-19T16:27:56.712Z,10.30
2018-12-19T16:30:25.026Z,10.20
2018-12-19T16:32:53.445Z,10.20
2018-12-19T16:35:21.813Z,10.10
2018-12-19T16:40:18.695Z,10.00
2018-12-19T16:42:46.976Z,9.90
2018-12-19T16:45:15.764Z,9.90
2018-12-19T16:47:44.693Z,9.80
2018-12-19T16:50:12.962Z,9.90
2018-12-19T16:52:41.190Z,9.90
2018-12-19T16:55:10.007Z,9.90
2018-12-19T16:57:38.188Z,9.90
2018-12-19T17:00:07.932Z,9.90
2018-12-19T17:02:36.138Z,9.90
2018-12-19T17:05:05.049Z,9.90
2018-12-19T17:07:33.556Z,9.80
2018-12-19T17:10:02.372Z,9.60
2018-12-19T17:12:30.700Z,9.60
2018-12-19T17:14:58.915Z,9.40
2018-12-19T17:17:27.170Z,9.40
2018-12-19T17:19:55.516Z,9.30
2018-12-19T17:22:23.849Z,9.30
2018-12-19T17:24:52.057Z,9.30
2018-12-19T17:27:20.255Z,9.30
2018-12-19T17:29:49.975Z,9.30
2018-12-19T17:32:19.619Z,9.30
2018-12-19T17:34:47.863Z,9.40
2018-12-19T17:37:16.101Z,9.40
2018-12-19T17:39:44.298Z,9.40
2018-12-19T17:42:12.551Z,9.50
2018-12-19T17:44:41.230Z,9.60
2018-12-19T17:47:09.658Z,9.50
2018-12-19T17:49:38.048Z,9.50
2018-12-19T17:52:06.284Z,9.60
2018-12-19T17:54:34.638Z,9.60
2018-12-19T17:57:03.168Z,9.50
2018-12-19T17:59:31.657Z,9.60
2018-12-19T18:02:00.086Z,9.60
2018-12-19T18:04:28.317Z,9.60
2018-12-19T18:06:56.741Z,9.70
2018-12-19T18:09:25.384Z,9.60
2018-12-19T18:11:53.672Z,9.60
2018-12-19T18:14:22.148Z,9.60
2018-12-19T18:16:50.413Z,9.70
2018-12-19T18:19:23.314Z,9.70
2018-12-19T18:21:48.856Z,9.60
2018-12-19T18:24:17.199Z,9.60
2018-12-19T18:26:45.431Z,9.50
2018-12-19T18:29:13.701Z,9.50
2018-12-19T18:31:42.003Z,9.50
2018-12-19T18:34:10.209Z,9.50
2018-12-19T18:36:38.611Z,9.50
2018-12-19T18:39:09.011Z,9.40
2018-12-19T18:41:37.388Z,9.40
2018-12-19T18:44:05.619Z,9.50
2018-12-19T18:46:33.816Z,9.50
2018-12-19T18:49:02.208Z,9.50
2018-12-19T18:51:30.382Z,9.50
2018-12-19T18:53:58.558Z,9.50
2018-12-19T18:56:26.959Z,9.40
2018-12-19T18:58:55.149Z,9.40
2018-12-19T19:01:23.389Z,9.50
2018-12-19T19:03:52.019Z,9.50
2018-12-19T19:06:20.276Z,9.40
2018-12-19T19:08:48.539Z,9.40
2018-12-19T19:11:16.865Z,9.40
2018-12-19T19:13:45.079Z,9.40
2018-12-19T19:16:13.945Z,9.40
2018-12-19T19:18:47.194Z,9.30
2018-12-19T19:21:15.538Z,9.30
2018-12-19T19:23:43.743Z,9.30
2018-12-19T19:26:12.056Z,9.30
2018-12-19T19:28:40.329Z,9.20
2018-12-19T19:31:08.770Z,9.30
2018-12-19T19:33:37.026Z,9.30
2018-12-19T19:36:05.197Z,9.20
2018-12-19T19:38:33.468Z,9.20
2018-12-19T19:41:02.266Z,9.20
2018-12-19T19:43:30.533Z,9.10
2018-12-19T19:45:58.755Z,9.10
2018-12-19T19:48:27.051Z,9.10
2018-12-19T19:50:55.275Z,9.10
2018-12-19T19:53:23.610Z,9.20
2018-12-19T19:55:52.010Z,9.10
2018-12-19T19:58:20.204Z,9.10
2018-12-19T20:00:48.568Z,9.10
2018-12-19T20:03:17.456Z,9.10
2018-12-19T20:05:46.034Z,9.10
2018-12-19T20:08:14.219Z,9.10
2018-12-19T20:10:42.498Z,9.00
2018-12-19T20:13:10.674Z,9.00
2018-12-19T20:15:39.056Z,9.00
2018-12-19T20:18:09.279Z,8.90
2018-12-19T20:20:38.201Z,8.90
2018-12-19T20:23:07.078Z,8.90
2018-12-19T20:25:35.286Z,8.90
2018-12-19T20:28:03.790Z,8.90
2018-12-19T20:30:32.074Z,8.90
2018-12-19T20:33:00.331Z,8.90
2018-12-19T20:35:28.701Z,8.90
2018-12-19T20:37:56.876Z,8.90
2018-12-19T20:40:25.078Z,8.90
2018-12-19T20:42:53.300Z,8.90
2018-12-19T20:45:21.477Z,8.90
2018-12-19T20:47:49.737Z,8.90
2018-12-19T20:50:18.071Z,8.90
2018-12-19T20:52:46.343Z,8.90
2018-12-19T20:55:14.547Z,8.90
2018-12-19T20:57:42.920Z,8.90
2018-12-19T21:00:11.516Z,8.80
2018-12-19T21:02:43.093Z,8.70
2018-12-19T21:05:11.461Z,8.70
2018-12-19T21:07:39.787Z,8.70
2018-12-19T21:10:08.691Z,8.80
2018-12-19T21:12:36.992Z,8.80
2018-12-19T21:15:06.392Z,8.80
2018-12-19T21:17:40.135Z,8.80
2018-12-19T21:20:08.646Z,8.90
2018-12-19T21:22:36.949Z,8.80
2018-12-19T21:25:05.499Z,8.80
2018-12-19T21:27:33.855Z,8.80
2018-12-19T21:30:02.155Z,8.70
2018-12-19T21:32:30.522Z,8.70
2018-12-19T21:34:58.675Z,8.70
2018-12-19T21:37:26.971Z,8.70
2018-12-19T21:39:55.363Z,8.70
2018-12-19T21:42:23.693Z,8.70
2018-12-19T21:44:52.250Z,8.60
2018-12-19T21:47:20.477Z,8.60
2018-12-19T21:49:48.686Z,8.60
2018-12-19T21:52:16.870Z,8.60
2018-12-19T21:54:45.106Z,8.60
2018-12-19T21:57:13.474Z,8.60
2018-12-19T21:59:42.243Z,8.60
2018-12-19T22:02:10.501Z,8.60
2018-12-19T22:04:38.751Z,8.60
2018-12-19T22:07:08.494Z,8.60
2018-12-19T22:09:37.233Z,8.60
2018-12-19T22:12:05.517Z,8.60
2018-12-19T22:14:33.735Z,8.60
2018-12-19T22:17:07.350Z,8.60
2018-12-19T22:19:35.646Z,8.50
2018-12-19T22:22:04.032Z,8.50
2018-12-19T22:24:32.340Z,8.40
2018-12-19T22:27:00.508Z,8.30
2018-12-19T22:29:29.031Z,8.20
2018-12-19T22:31:57.424Z,8.10
2018-12-19T22:34:25.752Z,8.00
2018-12-19T22:36:54.019Z,8.00
2018-12-19T22:39:31.568Z,8.10
2018-12-19T22:42:00.010Z,8.10
2018-12-19T22:44:28.251Z,8.10
2018-12-19T22:46:56.772Z,8.00
2018-12-19T22:49:25.822Z,7.90
2018-12-19T22:52:05.371Z,7.90
2018-12-19T22:54:33.710Z,7.90
2018-12-19T22:57:27.040Z,7.80
2018-12-19T22:59:55.573Z,7.80
2018-12-19T23:03:28.205Z,7.70
2018-12-19T23:05:56.602Z,7.70
2018-12-19T23:08:24.807Z,7.60
2018-12-19T23:10:53.314Z,7.60
2018-12-19T23:13:21.749Z,7.60
2018-12-19T23:15:50.098Z,7.50
2018-12-19T23:18:23.813Z,7.50
2018-12-19T23:20:53.283Z,7.50
2018-12-19T23:23:21.622Z,7.40
2018-12-19T23:25:49.895Z,7.30
2018-12-19T23:28:18.378Z,7.30
2018-12-19T23:30:46.706Z,7.40
2018-12-19T23:33:15.017Z,7.40
2018-12-19T23:35:43.234Z,7.40
2018-12-19T23:38:11.685Z,7.40
2018-12-19T23:40:40.069Z,7.50
2018-12-19T23:43:08.530Z,7.40
2018-12-19T23:45:36.754Z,7.50
2018-12-19T23:48:05.161Z,7.50
2018-12-19T23:50:33.424Z,7.50
2018-12-19T23:53:01.713Z,7.50
2018-12-19T23:55:29.958Z,7.60
2018-12-19T23:57:58.255Z,7.60
